createdAt,value
2022-10-19T00:01:26.885Z,30.70
2022-10-19T00:03:57.275Z,29.67
2022-10-19T00:06:27.889Z,27.53
2022-10-19T00:08:58.085Z,26.60
2022-10-19T00:11:29.321Z,24.50
2022-10-19T00:13:59.217Z,26.70
2022-10-19T00:16:30.484Z,27.27
2022-10-19T00:19:00.100Z,25.43
2022-10-19T00:21:29.254Z,23.83
2022-10-19T00:23:58.047Z,24.40
2022-10-19T00:26:28.401Z,23.50
2022-10-19T00:28:58.132Z,24.67
2022-10-19T00:31:27.485Z,22.13
2022-10-19T00:33:58.181Z,24.43
2022-10-19T00:36:28.790Z,21.13
2022-10-19T00:38:58.555Z,21.37
2022-10-19T00:41:30.388Z,22.80
2022-10-19T00:44:00.370Z,20.13
2022-10-19T00:46:31.341Z,19.93
2022-10-19T00:49:04.872Z,20.23
2022-10-19T00:51:37.551Z,19.63
2022-10-19T00:54:07.280Z,18.53
2022-10-19T00:56:39.693Z,19.83
2022-10-19T00:59:10.039Z,18.30
2022-10-19T01:01:38.669Z,19.17
2022-10-19T01:04:07.692Z,17.60
2022-10-19T01:06:37.282Z,18.27
2022-10-19T01:09:06.046Z,19.57
2022-10-19T01:11:49.110Z,19.03
2022-10-19T01:14:31.989Z,22.50
2022-10-19T01:17:11.360Z,24.43
2022-10-19T01:20:07.448Z,24.93
2022-10-19T01:22:49.581Z,22.70
2022-10-19T01:25:24.749Z,25.83
2022-10-19T01:28:18.906Z,26.07
2022-10-19T01:30:54.647Z,28.20
2022-10-19T01:33:33.281Z,24.57
2022-10-19T01:36:10.120Z,26.80
2022-10-19T01:38:45.877Z,25.57
2022-10-19T01:41:18.766Z,24.97
2022-10-19T01:43:54.584Z,24.33
2022-10-19T01:46:31.153Z,25.47
2022-10-19T01:49:08.337Z,26.53
2022-10-19T01:51:43.047Z,26.20
2022-10-19T01:54:14.464Z,27.27
2022-10-19T01:56:46.500Z,29.03
2022-10-19T01:59:17.005Z,30.63
2022-10-19T02:01:49.688Z,29.30
2022-10-19T02:04:22.330Z,30.47
2022-10-19T02:06:51.886Z,30.90
2022-10-19T02:09:20.898Z,27.53
2022-10-19T02:11:56.149Z,27.77
2022-10-19T02:14:29.230Z,25.77
2022-10-19T02:17:03.569Z,26.50
2022-10-19T02:19:32.288Z,23.57
2022-10-19T02:22:01.227Z,24.10
2022-10-19T02:24:29.797Z,23.37
2022-10-19T02:26:58.805Z,27.00
2022-10-19T02:29:27.778Z,22.00
2022-10-19T02:31:56.885Z,25.43
2022-10-19T02:34:27.343Z,23.93
2022-10-19T02:36:56.232Z,22.47
2022-10-19T02:39:24.855Z,22.63
2022-10-19T02:41:57.301Z,22.20
2022-10-19T02:44:31.239Z,22.73
2022-10-19T02:47:06.862Z,23.83
2022-10-19T02:49:38.190Z,21.10
2022-10-19T02:52:08.821Z,23.70
2022-10-19T02:54:38.069Z,26.17
2022-10-19T02:57:16.919Z,27.60
2022-10-19T02:59:45.889Z,26.63
2022-10-19T03:02:14.555Z,27.23
2022-10-19T03:04:44.962Z,27.47
2022-10-19T03:07:16.146Z,27.30
2022-10-19T03:09:44.934Z,25.47
2022-10-19T03:12:14.297Z,25.45
2022-10-19T03:14:43.235Z,20.07
2022-10-19T03:17:12.270Z,26.57
2022-10-19T03:19:41.741Z,25.70
2022-10-19T03:22:11.749Z,24.93
2022-10-19T03:24:40.452Z,26.90
2022-10-19T03:27:09.233Z,25.67
2022-10-19T03:29:37.826Z,24.07
2022-10-19T03:32:06.694Z,23.70
2022-10-19T03:34:35.988Z,23.33
2022-10-19T03:37:04.728Z,30.45
2022-10-19T03:39:34.847Z,24.10
2022-10-19T03:42:03.604Z,26.03
2022-10-19T03:44:32.679Z,28.63
2022-10-19T03:47:01.371Z,28.27
2022-10-19T03:49:30.045Z,28.83
2022-10-19T03:51:58.734Z,29.30
2022-10-19T03:54:27.688Z,31.83
2022-10-19T03:56:57.899Z,30.73
2022-10-19T03:59:26.629Z,29.07
2022-10-19T04:01:55.377Z,29.57
2022-10-19T04:04:24.014Z,27.47
2022-10-19T04:06:54.030Z,29.17
2022-10-19T04:09:23.776Z,24.83
2022-10-19T04:11:52.667Z,23.30
2022-10-19T04:14:32.099Z,24.50
2022-10-19T04:17:06.454Z,20.30
2022-10-19T04:19:35.157Z,21.50
2022-10-19T04:22:03.953Z,20.80
2022-10-19T04:24:35.461Z,25.57
2022-10-19T04:27:04.252Z,21.53
2022-10-19T04:29:34.522Z,20.63
2022-10-19T04:32:03.524Z,22.60
2022-10-19T04:34:35.161Z,23.03
2022-10-19T04:37:06.536Z,21.80
2022-10-19T04:39:47.292Z,26.57
2022-10-19T04:42:44.078Z,24.47
2022-10-19T04:45:15.824Z,29.37
2022-10-19T04:47:46.713Z,31.87
2022-10-19T04:50:16.757Z,23.07
2022-10-19T04:52:47.139Z,22.13
2022-10-19T04:55:16.143Z,24.63
2022-10-19T04:57:45.080Z,19.97
2022-10-19T05:00:16.548Z,21.10
2022-10-19T05:02:50.194Z,21.73
2022-10-19T05:05:21.667Z,22.57
2022-10-19T05:07:55.598Z,22.43
2022-10-19T05:10:24.455Z,21.70
2022-10-19T05:12:56.159Z,22.77
2022-10-19T05:15:28.959Z,22.13
2022-10-19T05:18:01.829Z,20.83
2022-10-19T05:20:34.358Z,18.83
2022-10-19T05:23:06.316Z,16.63
2022-10-19T05:25:37.647Z,16.53
2022-10-19T05:28:06.372Z,16.73
2022-10-19T05:30:36.515Z,16.57
2022-10-19T05:33:05.215Z,14.90
2022-10-19T05:35:33.967Z,16.30
2022-10-19T05:38:02.906Z,14.30
2022-10-19T05:40:31.995Z,16.67
2022-10-19T05:43:00.813Z,15.60
2022-10-19T05:45:29.540Z,20.20
2022-10-19T05:48:00.980Z,23.90
2022-10-19T05:50:29.658Z,16.97
2022-10-19T05:52:58.592Z,18.47
2022-10-19T05:55:27.825Z,15.17
2022-10-19T05:57:56.563Z,14.93
2022-10-19T06:00:25.364Z,13.57
2022-10-19T06:02:58.991Z,13.73
2022-10-19T06:05:29.676Z,13.90
2022-10-19T06:07:58.493Z,11.60
2022-10-19T06:10:27.147Z,13.43
2022-10-19T06:12:55.958Z,12.30
2022-10-19T06:15:24.679Z,12.33
2022-10-19T06:17:57.143Z,16.07
2022-10-19T06:20:27.271Z,13.13
2022-10-19T06:22:57.427Z,12.37
2022-10-19T06:25:26.278Z,12.13
2022-10-19T06:27:56.381Z,11.50
2022-10-19T06:30:25.044Z,12.60
2022-10-19T06:32:53.932Z,16.70
2022-10-19T06:35:22.888Z,17.80
2022-10-19T06:37:51.687Z,15.17
2022-10-19T06:40:21.979Z,16.03
2022-10-19T06:42:50.799Z,16.93
2022-10-19T06:45:20.041Z,13.07
2022-10-19T06:47:49.311Z,14.50
2022-10-19T06:50:18.208Z,12.40
2022-10-19T06:52:47.544Z,12.43
2022-10-19T06:55:18.082Z,12.80
2022-10-19T06:57:48.221Z,12.77
2022-10-19T07:00:17.643Z,12.97
2022-10-19T07:02:46.449Z,12.13
2022-10-19T07:05:15.087Z,14.27
2022-10-19T07:07:43.826Z,25.67
2022-10-19T07:10:12.658Z,15.80
2022-10-19T07:12:41.334Z,17.37
2022-10-19T07:15:12.557Z,12.07
2022-10-19T07:17:41.275Z,16.03
2022-10-19T07:20:11.962Z,17.90
2022-10-19T07:22:40.676Z,13.93
2022-10-19T07:25:10.098Z,15.60
2022-10-19T07:27:40.688Z,14.30
2022-10-19T07:30:11.671Z,21.30
2022-10-19T07:32:43.204Z,13.27
2022-10-19T07:35:15.554Z,12.30
2022-10-19T07:37:44.461Z,14.87
2022-10-19T07:40:14.542Z,13.43
2022-10-19T07:42:43.195Z,12.93
2022-10-19T07:45:13.497Z,10.53
2022-10-19T07:47:42.205Z,12.47
2022-10-19T07:50:13.178Z,8.93
2022-10-19T07:52:42.233Z,11.30
2022-10-19T07:55:11.575Z,10.47
2022-10-19T07:57:42.581Z,13.17
2022-10-19T08:00:16.193Z,15.43
2022-10-19T08:03:00.105Z,9.20
2022-10-19T08:05:34.521Z,11.40
2022-10-19T08:08:03.238Z,11.47
2022-10-19T08:10:31.870Z,11.20
2022-10-19T08:13:00.471Z,12.03
2022-10-19T08:15:32.920Z,10.97
2022-10-19T08:18:07.518Z,11.80
2022-10-19T08:20:36.191Z,10.50
2022-10-19T08:23:05.350Z,13.33
2022-10-19T08:25:34.055Z,12.90
2022-10-19T08:28:02.735Z,16.43
2022-10-19T08:30:32.731Z,26.40
2022-10-19T08:33:01.496Z,19.07
2022-10-19T08:35:31.287Z,17.07
2022-10-19T08:38:02.763Z,14.50
2022-10-19T08:40:34.507Z,16.83
2022-10-19T08:43:10.355Z,13.57
2022-10-19T08:45:43.497Z,9.50
2022-10-19T08:48:28.839Z,9.60
2022-10-19T08:50:59.843Z,9.90
2022-10-19T08:53:41.999Z,10.40
2022-10-19T08:56:45.639Z,10.10
2022-10-19T08:59:20.191Z,10.73
2022-10-19T09:01:54.948Z,10.63
2022-10-19T09:07:24.865Z,10.13
2022-10-19T09:10:00.195Z,10.37
2022-10-19T09:12:44.538Z,10.47
2022-10-19T09:15:16.497Z,10.97
2022-10-19T09:17:46.625Z,11.70
2022-10-19T09:20:20.857Z,12.77
2022-10-19T09:23:01.994Z,12.60
2022-10-19T09:25:32.238Z,9.57
2022-10-19T09:28:12.238Z,11.53
2022-10-19T09:30:44.284Z,9.27
2022-10-19T09:33:22.951Z,8.10
2022-10-19T09:35:52.062Z,8.60
2022-10-19T09:38:23.463Z,10.90
2022-10-19T09:40:52.257Z,14.53
2022-10-19T09:43:24.352Z,11.23
2022-10-19T09:46:01.384Z,8.60
2022-10-19T09:48:37.927Z,8.57
2022-10-19T09:51:13.994Z,6.23
2022-10-19T09:54:00.731Z,6.20
2022-10-19T09:56:30.945Z,6.17
2022-10-19T09:59:34.917Z,7.13
2022-10-19T10:02:42.037Z,7.03
2022-10-19T10:05:42.323Z,6.93
2022-10-19T10:08:16.532Z,8.50
2022-10-19T10:10:48.377Z,7.03
2022-10-19T10:13:19.980Z,7.80
2022-10-19T10:15:52.303Z,8.90
2022-10-19T10:18:21.256Z,8.23
2022-10-19T10:21:06.038Z,11.33
2022-10-19T10:23:38.035Z,11.10
2022-10-19T10:26:17.101Z,10.03
2022-10-19T10:28:49.890Z,12.77
2022-10-19T10:31:23.759Z,5.37
2022-10-19T10:34:10.951Z,6.87
2022-10-19T10:36:58.515Z,7.77
2022-10-19T10:39:28.733Z,6.63
2022-10-19T10:41:58.885Z,6.60
2022-10-19T10:44:31.440Z,6.73
2022-10-19T10:47:02.173Z,7.80
2022-10-19T10:49:36.588Z,7.53
2022-10-19T10:52:09.392Z,10.90
2022-10-19T10:54:38.609Z,8.53
2022-10-19T10:57:14.150Z,8.90
2022-10-19T10:59:54.933Z,11.77
2022-10-19T11:02:38.182Z,9.43
2022-10-19T11:05:12.989Z,5.93
2022-10-19T11:07:46.408Z,6.57
2022-10-19T11:10:24.847Z,6.63
2022-10-19T11:13:08.483Z,7.23
2022-10-19T11:15:48.496Z,6.57
2022-10-19T11:18:21.733Z,6.10
2022-10-19T11:20:59.029Z,7.20
2022-10-19T11:23:45.026Z,8.33
2022-10-19T11:26:32.610Z,6.77
2022-10-19T11:29:14.867Z,15.20
2022-10-19T11:31:49.440Z,8.73
2022-10-19T11:34:42.289Z,8.87
2022-10-19T11:37:22.117Z,8.90
2022-10-19T11:40:05.146Z,8.43
2022-10-19T11:42:50.319Z,6.33
2022-10-19T11:45:30.244Z,6.60
2022-10-19T11:48:16.003Z,6.13
2022-10-19T11:50:54.341Z,7.07
2022-10-19T11:53:37.129Z,10.40
2022-10-19T11:56:10.893Z,11.60
2022-10-19T11:59:06.309Z,15.90
2022-10-19T12:01:45.687Z,12.37
2022-10-19T12:04:50.459Z,9.70
2022-10-19T12:07:49.151Z,9.47
2022-10-19T12:10:26.965Z,7.10
2022-10-19T12:12:59.984Z,7.87
2022-10-19T12:15:32.197Z,13.47
2022-10-19T12:18:17.223Z,10.33
2022-10-19T12:20:51.561Z,16.37
2022-10-19T12:23:26.524Z,13.80
2022-10-19T12:25:57.887Z,12.23
2022-10-19T12:28:31.049Z,13.37
2022-10-19T12:31:02.186Z,9.93
2022-10-19T12:33:38.429Z,25.03
2022-10-19T12:36:18.571Z,5.40
2022-10-19T12:39:00.126Z,8.47
2022-10-19T12:41:37.808Z,7.37
2022-10-19T12:44:45.243Z,10.90
2022-10-19T12:47:19.191Z,19.60
2022-10-19T12:49:51.875Z,41.27
2022-10-19T12:52:37.310Z,4.77
2022-10-19T12:55:26.835Z,24.30
2022-10-19T12:58:03.840Z,31.43
2022-10-19T13:00:35.502Z,19.33
2022-10-19T13:03:08.988Z,16.70
2022-10-19T13:05:40.462Z,18.13
2022-10-19T13:08:12.266Z,38.83
2022-10-19T13:10:43.407Z,41.87
2022-10-19T13:13:50.084Z,33.53
2022-10-19T13:17:06.805Z,31.67
2022-10-19T13:19:37.267Z,38.03
2022-10-19T13:22:28.123Z,43.67
2022-10-19T13:25:33.333Z,41.17
2022-10-19T13:28:34.878Z,29.23
2022-10-19T13:31:07.122Z,30.47
2022-10-19T13:33:50.661Z,21.73
2022-10-19T13:36:22.102Z,26.20
2022-10-19T13:39:08.256Z,8.37
2022-10-19T13:41:52.951Z,17.30
2022-10-19T13:44:31.116Z,8.27
2022-10-19T13:47:32.799Z,6.33
2022-10-19T13:50:20.447Z,5.00
2022-10-19T13:53:23.344Z,5.83
2022-10-19T13:56:09.084Z,6.27
2022-10-19T13:59:05.701Z,10.73
2022-10-19T14:01:47.441Z,9.73
2022-10-19T14:04:31.555Z,8.73
2022-10-19T14:07:06.152Z,7.97
2022-10-19T14:09:59.771Z,6.53
2022-10-19T14:12:30.884Z,9.50
2022-10-19T14:15:00.633Z,14.50
2022-10-19T14:17:34.221Z,15.17
2022-10-19T14:20:04.313Z,14.03
2022-10-19T14:22:34.848Z,9.90
2022-10-19T14:25:08.425Z,10.13
2022-10-19T14:27:37.747Z,6.07
2022-10-19T14:30:10.620Z,6.83
2022-10-19T14:35:22.637Z,6.30
2022-10-19T14:37:51.929Z,7.23
2022-10-19T14:40:30.610Z,8.57
2022-10-19T14:43:00.897Z,9.20
2022-10-19T14:45:31.374Z,8.67
2022-10-19T14:48:02.382Z,8.30
2022-10-19T14:50:40.483Z,8.67
2022-10-19T14:53:22.882Z,9.47
2022-10-19T14:55:56.565Z,12.60
2022-10-19T14:58:28.171Z,9.53
2022-10-19T15:00:57.508Z,7.57
2022-10-19T15:03:29.546Z,9.17
2022-10-19T15:06:01.262Z,10.60
2022-10-19T15:08:37.610Z,14.80
2022-10-19T15:11:09.139Z,21.37
2022-10-19T15:13:43.104Z,21.57
2022-10-19T15:16:54.073Z,14.23
2022-10-19T15:19:29.031Z,13.27
2022-10-19T15:22:26.812Z,10.63
2022-10-19T15:25:26.683Z,10.67
2022-10-19T15:27:57.896Z,12.57
2022-10-19T15:30:33.498Z,13.57
2022-10-19T15:33:15.686Z,14.13
2022-10-19T15:35:46.562Z,12.60
2022-10-19T15:38:22.418Z,19.33
2022-10-19T15:40:58.139Z,24.33
2022-10-19T15:43:40.591Z,17.47
2022-10-19T15:46:23.212Z,20.67
2022-10-19T15:48:55.244Z,10.87
2022-10-19T15:51:48.457Z,19.30
2022-10-19T15:54:25.982Z,10.70
2022-10-19T15:56:58.635Z,10.87
2022-10-19T15:59:31.246Z,12.43
2022-10-19T16:02:03.461Z,18.57
2022-10-19T16:04:32.175Z,28.60
2022-10-19T16:07:09.735Z,21.73
2022-10-19T16:09:38.479Z,15.07
2022-10-19T16:12:07.478Z,15.03
2022-10-19T16:14:37.575Z,20.07
2022-10-19T16:17:06.308Z,18.13
2022-10-19T16:19:37.665Z,19.63
2022-10-19T16:22:06.625Z,12.40
2022-10-19T16:24:40.679Z,14.90
2022-10-19T16:27:17.358Z,16.27
2022-10-19T16:29:49.533Z,13.57
2022-10-19T16:32:19.104Z,15.93
2022-10-19T16:34:51.290Z,17.20
2022-10-19T16:37:24.096Z,31.35
2022-10-19T16:39:54.117Z,13.60
2022-10-19T16:42:29.711Z,10.93
2022-10-19T16:45:03.871Z,14.50
2022-10-19T16:47:36.989Z,22.07
2022-10-19T16:50:08.451Z,14.67
2022-10-19T16:52:39.852Z,15.43
2022-10-19T16:55:09.674Z,15.97
2022-10-19T16:57:39.699Z,18.00
2022-10-19T17:00:11.271Z,19.83
2022-10-19T17:02:44.444Z,42.27
2022-10-19T17:05:18.961Z,16.07
2022-10-19T17:07:48.804Z,15.53
2022-10-19T17:10:19.345Z,19.13
2022-10-19T17:12:48.086Z,15.83
2022-10-19T17:15:41.502Z,12.87
2022-10-19T17:18:13.142Z,12.67
2022-10-19T17:20:44.849Z,14.73
2022-10-19T17:23:14.662Z,14.37
2022-10-19T17:25:51.592Z,13.70
2022-10-19T17:28:25.474Z,13.13
2022-10-19T17:31:06.401Z,13.37
2022-10-19T17:33:41.576Z,15.23
2022-10-19T17:36:15.442Z,14.43
2022-10-19T17:38:49.679Z,12.13
2022-10-19T17:41:24.926Z,17.53
2022-10-19T17:44:00.524Z,13.63
2022-10-19T17:46:36.234Z,15.47
2022-10-19T17:49:10.166Z,17.10
2022-10-19T17:51:47.172Z,17.03
2022-10-19T17:54:19.786Z,20.65
2022-10-19T17:56:52.287Z,13.40
2022-10-19T17:59:34.758Z,19.60
2022-10-19T18:02:09.949Z,16.77
2022-10-19T18:04:42.827Z,19.27
2022-10-19T18:07:15.850Z,14.97
2022-10-19T18:09:51.861Z,16.40
2022-10-19T18:12:24.202Z,15.43
2022-10-19T18:14:57.644Z,11.67
2022-10-19T18:17:32.524Z,16.43
2022-10-19T18:20:07.393Z,17.53
2022-10-19T18:22:39.899Z,13.40
2022-10-19T18:25:18.793Z,16.40
2022-10-19T18:27:59.453Z,14.67
2022-10-19T18:30:35.495Z,12.17
2022-10-19T18:33:12.398Z,12.73
2022-10-19T18:35:45.843Z,14.37
2022-10-19T18:38:18.181Z,13.77
2022-10-19T18:40:50.507Z,15.53
2022-10-19T18:43:22.368Z,16.00
2022-10-19T18:45:55.779Z,16.20
2022-10-19T18:48:30.713Z,16.67
2022-10-19T18:51:06.390Z,17.23
2022-10-19T18:53:35.221Z,14.23
2022-10-19T18:56:07.089Z,14.63
2022-10-19T18:58:39.960Z,15.63
2022-10-19T19:01:13.805Z,15.70
2022-10-19T19:03:47.034Z,18.30
2022-10-19T19:06:22.890Z,17.33
2022-10-19T19:08:55.723Z,16.73
2022-10-19T19:11:30.604Z,17.10
2022-10-19T19:14:03.848Z,15.40
2022-10-19T19:16:38.393Z,18.50
2022-10-19T19:19:13.369Z,21.60
2022-10-19T19:21:44.527Z,20.60
2022-10-19T19:24:15.899Z,17.33
2022-10-19T19:26:49.136Z,15.97
2022-10-19T19:29:20.064Z,19.20
2022-10-19T19:31:49.663Z,19.53
2022-10-19T19:34:22.227Z,19.07
2022-10-19T19:36:51.089Z,17.07
2022-10-19T19:39:22.710Z,19.67
2022-10-19T19:41:54.984Z,20.37
2022-10-19T19:44:26.820Z,15.13
2022-10-19T19:46:56.722Z,17.20
2022-10-19T19:49:29.196Z,16.37
2022-10-19T19:52:07.441Z,21.67
2022-10-19T19:54:36.825Z,19.63
2022-10-19T19:57:08.632Z,18.17
2022-10-19T19:59:38.488Z,17.67
2022-10-19T20:02:09.447Z,16.00
2022-10-19T20:04:43.553Z,18.37
2022-10-19T20:07:17.111Z,17.93
2022-10-19T20:09:46.727Z,20.13
2022-10-19T20:12:20.234Z,16.73
2022-10-19T20:15:00.488Z,17.60
2022-10-19T20:17:29.844Z,17.97
2022-10-19T20:20:02.251Z,19.87
2022-10-19T20:22:34.923Z,18.33
2022-10-19T20:25:10.629Z,17.63
2022-10-19T20:27:41.302Z,18.30
2022-10-19T20:30:12.916Z,20.67
2022-10-19T20:32:43.838Z,18.63
2022-10-19T20:35:15.027Z,20.93
2022-10-19T20:37:45.194Z,22.87
2022-10-19T20:40:16.129Z,16.63
2022-10-19T20:42:46.601Z,16.70
2022-10-19T20:45:15.275Z,18.30
2022-10-19T20:47:46.486Z,20.80
2022-10-19T20:50:21.793Z,21.93
2022-10-19T20:52:51.361Z,21.70
2022-10-19T20:55:24.629Z,20.23
2022-10-19T20:57:55.908Z,19.33
2022-10-19T21:00:28.956Z,19.20
2022-10-19T21:02:59.496Z,19.93
2022-10-19T21:05:30.485Z,19.43
2022-10-19T21:07:59.174Z,19.60
2022-10-19T21:10:31.494Z,23.27
2022-10-19T21:13:04.288Z,21.03
2022-10-19T21:15:36.830Z,24.10
2022-10-19T21:18:08.210Z,18.20
2022-10-19T21:20:41.223Z,18.57
2022-10-19T21:23:10.119Z,16.43
2022-10-19T21:25:39.947Z,16.70
2022-10-19T21:28:11.102Z,18.67
2022-10-19T21:30:40.680Z,17.93
2022-10-19T21:33:09.846Z,18.00
2022-10-19T21:35:43.202Z,19.33
2022-10-19T21:38:15.758Z,21.17
2022-10-19T21:40:46.847Z,23.90
2022-10-19T21:43:19.025Z,19.60
2022-10-19T21:45:50.484Z,22.77
2022-10-19T21:48:19.399Z,21.57
2022-10-19T21:50:52.096Z,24.07
2022-10-19T21:53:22.481Z,26.90
2022-10-19T21:55:55.021Z,26.00
2022-10-19T21:58:24.552Z,26.37
2022-10-19T22:00:55.033Z,30.53
2022-10-19T22:03:25.053Z,31.13
2022-10-19T22:06:00.186Z,33.10
2022-10-19T22:08:30.242Z,30.83
2022-10-19T22:11:07.451Z,32.40
2022-10-19T22:13:38.355Z,31.93
2022-10-19T22:16:09.477Z,33.33
2022-10-19T22:18:39.903Z,30.90
2022-10-19T22:21:15.415Z,30.57
2022-10-19T22:23:46.770Z,34.73
2022-10-19T22:26:19.617Z,34.90
2022-10-19T22:28:50.784Z,29.77
2022-10-19T22:31:21.434Z,32.10
2022-10-19T22:33:50.658Z,34.83
2022-10-19T22:36:22.315Z,35.03
2022-10-19T22:38:53.392Z,30.50
2022-10-19T22:41:23.768Z,31.77
2022-10-19T22:43:53.117Z,31.27
2022-10-19T22:46:23.223Z,27.53
2022-10-19T22:48:53.111Z,28.17
2022-10-19T22:51:23.911Z,30.60
2022-10-19T22:53:55.779Z,31.50
2022-10-19T22:56:26.588Z,31.07
2022-10-19T22:58:56.485Z,31.67
2022-10-19T23:01:26.116Z,29.87
2022-10-19T23:03:57.543Z,31.83
2022-10-19T23:06:31.553Z,37.10
2022-10-19T23:09:01.843Z,37.40
2022-10-19T23:11:30.544Z,39.20
2022-10-19T23:14:01.237Z,36.90
2022-10-19T23:16:30.597Z,35.20
2022-10-19T23:18:59.113Z,37.10
2022-10-19T23:21:34.374Z,32.17
2022-10-19T23:24:11.425Z,36.67
2022-10-19T23:26:46.035Z,32.10
2022-10-19T23:29:20.404Z,30.37
2022-10-19T23:31:54.572Z,35.17
2022-10-19T23:34:25.177Z,32.27
2022-10-19T23:37:02.983Z,37.23
2022-10-19T23:39:36.813Z,33.20
2022-10-19T23:42:10.158Z,34.67
2022-10-19T23:44:46.527Z,37.00
2022-10-19T23:47:23.309Z,32.97
2022-10-19T23:49:52.837Z,33.10
2022-10-19T23:52:26.300Z,38.70
2022-10-19T23:54:56.864Z,35.60
2022-10-19T23:57:27.718Z,33.53
2022-10-19T23:59:56.368Z,34.33
